createdAt,value
2019-03-04T00:01:12.143Z,1.80
2019-03-04T00:03:41.381Z,2.57
2019-03-04T00:06:10.765Z,2.10
2019-03-04T00:08:39.966Z,1.93
2019-03-04T00:11:09.086Z,1.97
2019-03-04T00:13:38.615Z,1.90
2019-03-04T00:16:07.767Z,2.90
2019-03-04T00:18:37.024Z,1.70
2019-03-04T00:21:06.521Z,4.00
2019-03-04T00:23:36.029Z,2.33
2019-03-04T00:26:05.176Z,1.97
2019-03-04T00:28:34.363Z,1.77
2019-03-04T00:31:03.675Z,1.57
2019-03-04T00:33:32.922Z,1.87
2019-03-04T00:36:02.072Z,1.80
2019-03-04T00:38:31.245Z,1.80
2019-03-04T00:41:01.290Z,1.93
2019-03-04T00:43:30.756Z,2.03
2019-03-04T00:45:59.971Z,1.70
2019-03-04T00:48:29.277Z,1.80
2019-03-04T00:50:58.496Z,1.60
2019-03-04T00:53:27.729Z,2.10
2019-03-04T00:55:56.893Z,2.10
2019-03-04T00:58:26.052Z,2.33
2019-03-04T01:00:55.229Z,4.63
2019-03-04T01:03:24.655Z,2.03
2019-03-04T01:05:53.813Z,1.70
2019-03-04T01:08:22.953Z,1.67
2019-03-04T01:10:52.102Z,1.60
2019-03-04T01:13:22.937Z,1.70
2019-03-04T01:15:52.195Z,2.50
2019-03-04T01:18:21.414Z,4.30
2019-03-04T01:20:50.633Z,2.30
2019-03-04T01:23:20.116Z,3.53
2019-03-04T01:25:49.546Z,2.50
2019-03-04T01:28:18.753Z,1.83
2019-03-04T01:30:47.917Z,1.70
2019-03-04T01:33:17.052Z,1.63
2019-03-04T01:35:46.501Z,1.70
2019-03-04T01:38:15.746Z,2.00
2019-03-04T01:40:45.449Z,1.90
2019-03-04T01:43:14.602Z,1.83
2019-03-04T01:45:43.773Z,1.70
2019-03-04T01:48:12.926Z,1.97
2019-03-04T01:50:42.209Z,1.60
2019-03-04T01:53:11.650Z,2.13
2019-03-04T01:55:40.878Z,2.03
2019-03-04T01:58:10.179Z,1.80
2019-03-04T02:00:39.537Z,1.40
2019-03-04T02:03:08.790Z,1.70
2019-03-04T02:05:37.980Z,2.50
2019-03-04T02:08:07.159Z,1.77
2019-03-04T02:10:36.897Z,1.57
2019-03-04T02:13:06.099Z,1.73
2019-03-04T02:15:35.412Z,1.53
2019-03-04T02:18:04.581Z,1.40
2019-03-04T02:20:33.736Z,1.40
2019-03-04T02:23:02.921Z,1.13
2019-03-04T02:26:14.348Z,1.00
2019-03-04T02:28:43.593Z,1.00
2019-03-04T02:31:12.756Z,1.20
2019-03-04T02:33:41.935Z,1.23
2019-03-04T02:36:11.112Z,1.10
2019-03-04T02:38:40.267Z,1.40
2019-03-04T02:41:09.530Z,1.30
2019-03-04T02:43:38.710Z,1.27
2019-03-04T02:46:08.070Z,1.53
2019-03-04T02:48:37.598Z,1.50
2019-03-04T02:51:06.867Z,1.30
2019-03-04T02:53:36.343Z,1.40
2019-03-04T02:56:05.685Z,1.30
2019-03-04T02:58:34.919Z,1.30
2019-03-04T03:01:04.314Z,1.70
2019-03-04T03:03:33.571Z,1.47
2019-03-04T03:06:03.095Z,1.30
2019-03-04T03:08:32.330Z,1.37
2019-03-04T03:11:01.566Z,1.70
2019-03-04T03:13:30.791Z,1.50
2019-03-04T03:15:59.932Z,1.87
2019-03-04T03:18:29.158Z,1.87
2019-03-04T03:20:58.291Z,1.60
2019-03-04T03:23:27.451Z,1.77
2019-03-04T03:25:56.837Z,2.30
2019-03-04T03:28:25.987Z,2.37
2019-03-04T03:30:55.198Z,2.43
2019-03-04T03:33:24.463Z,2.27
2019-03-04T03:35:53.646Z,2.30
2019-03-04T03:38:22.883Z,2.43
2019-03-04T03:40:52.100Z,2.27
2019-03-04T03:43:21.218Z,2.50
2019-03-04T03:45:50.438Z,2.77
2019-03-04T03:48:19.589Z,2.80
2019-03-04T03:50:48.729Z,3.23
2019-03-04T03:53:18.072Z,2.60
2019-03-04T03:55:47.526Z,2.40
2019-03-04T03:58:16.754Z,2.23
2019-03-04T04:00:46.159Z,2.20
2019-03-04T04:03:15.800Z,3.07
2019-03-04T04:05:45.005Z,2.50
2019-03-04T04:08:14.233Z,2.03
2019-03-04T04:10:43.432Z,1.90
2019-03-04T04:13:12.664Z,1.97
2019-03-04T04:15:41.957Z,1.53
2019-03-04T04:18:11.482Z,1.63
2019-03-04T04:20:41.012Z,1.67
2019-03-04T04:23:10.159Z,1.80
2019-03-04T04:25:39.367Z,1.80
2019-03-04T04:28:09.466Z,2.20
2019-03-04T04:30:39.385Z,2.13
2019-03-04T04:33:08.812Z,1.60
2019-03-04T04:35:37.926Z,2.00
2019-03-04T04:38:07.049Z,1.83
2019-03-04T04:40:36.286Z,2.30
2019-03-04T04:43:05.412Z,1.87
2019-03-04T04:45:34.568Z,2.10
2019-03-04T04:48:04.071Z,1.70
2019-03-04T04:50:33.318Z,1.90
2019-03-04T04:53:02.788Z,2.10
2019-03-04T04:55:31.918Z,2.17
2019-03-04T04:58:01.033Z,2.43
2019-03-04T05:00:31.254Z,3.13
2019-03-04T05:03:00.642Z,3.83
2019-03-04T05:05:29.924Z,4.23
2019-03-04T05:07:59.340Z,3.90
2019-03-04T05:10:29.159Z,3.90
2019-03-04T05:12:58.581Z,3.43
2019-03-04T05:15:28.071Z,2.97
2019-03-04T05:17:57.225Z,3.30
2019-03-04T05:20:26.626Z,3.03
2019-03-04T05:22:56.082Z,2.83
2019-03-04T05:25:25.618Z,2.60
2019-03-04T05:27:54.780Z,2.27
2019-03-04T05:30:24.126Z,2.33
2019-03-04T05:32:53.278Z,2.60
2019-03-04T05:35:22.488Z,2.33
2019-03-04T05:37:51.878Z,2.60
2019-03-04T05:40:21.057Z,2.00
2019-03-04T05:42:50.262Z,3.30
2019-03-04T05:45:19.939Z,2.50
2019-03-04T05:47:49.161Z,5.50
2019-03-04T05:50:18.366Z,2.00
2019-03-04T05:52:47.918Z,2.30
2019-03-04T05:55:17.398Z,1.97
2019-03-04T05:57:46.501Z,2.30
2019-03-04T06:00:18.605Z,2.07
2019-03-04T06:02:47.810Z,1.60
2019-03-04T06:05:16.998Z,2.17
2019-03-04T06:07:49.368Z,1.97
2019-03-04T06:10:18.605Z,1.53
2019-03-04T06:12:47.853Z,1.77
2019-03-04T06:15:18.526Z,1.60
2019-03-04T06:17:47.798Z,2.23
2019-03-04T06:20:17.787Z,1.70
2019-03-04T06:22:47.552Z,1.70
2019-03-04T06:25:22.146Z,1.70
2019-03-04T06:27:51.605Z,1.63
2019-03-04T06:30:21.993Z,2.47
2019-03-04T06:32:51.147Z,1.80
2019-03-04T06:35:20.377Z,2.10
2019-03-04T06:37:49.509Z,2.00
2019-03-04T06:40:19.069Z,2.50
2019-03-04T06:42:49.165Z,2.23
2019-03-04T06:45:18.406Z,2.00
2019-03-04T06:47:48.241Z,1.60
2019-03-04T06:50:47.888Z,1.37
2019-03-04T06:53:27.581Z,1.50
2019-03-04T06:56:50.175Z,1.70
2019-03-04T06:59:52.562Z,1.90
2019-03-04T07:02:21.799Z,1.50
2019-03-04T07:05:28.816Z,1.90
2019-03-04T07:07:58.342Z,1.40
2019-03-04T07:10:27.610Z,1.40
2019-03-04T07:12:56.834Z,1.03
2019-03-04T07:15:25.988Z,1.50
2019-03-04T07:17:55.190Z,1.50
2019-03-04T07:20:24.343Z,1.13
2019-03-04T07:22:53.859Z,1.10
2019-03-04T07:25:23.060Z,1.50
2019-03-04T07:27:52.518Z,1.20
2019-03-04T07:30:21.877Z,1.10
2019-03-04T07:32:51.651Z,1.20
2019-03-04T07:35:20.786Z,1.07
2019-03-04T07:38:00.106Z,0.80
2019-03-04T07:40:29.518Z,1.30
2019-03-04T07:42:58.722Z,1.20
2019-03-04T07:45:28.200Z,1.03
2019-03-04T07:47:57.695Z,1.27
2019-03-04T07:50:26.941Z,0.70
2019-03-04T07:52:58.074Z,1.17
2019-03-04T07:55:27.495Z,1.30
2019-03-04T07:57:58.810Z,1.07
2019-03-04T08:00:28.429Z,1.30
2019-03-04T08:02:57.649Z,1.77
2019-03-04T08:05:26.805Z,1.73
2019-03-04T08:07:56.154Z,1.70
2019-03-04T08:10:54.233Z,1.10
2019-03-04T08:13:27.318Z,0.80
2019-03-04T08:15:58.574Z,1.20
2019-03-04T08:18:28.614Z,0.90
2019-03-04T08:20:58.775Z,0.80
2019-03-04T08:23:28.220Z,0.83
2019-03-04T08:25:57.685Z,0.80
2019-03-04T08:28:27.141Z,0.80
2019-03-04T08:30:56.464Z,0.80
2019-03-04T08:33:25.761Z,0.70
2019-03-04T08:35:55.549Z,0.63
2019-03-04T08:38:24.793Z,0.60
2019-03-04T08:40:53.998Z,0.40
2019-03-04T08:43:23.342Z,0.70
2019-03-04T08:45:52.546Z,0.57
2019-03-04T08:48:22.199Z,0.80
2019-03-04T08:50:52.422Z,0.73
2019-03-04T08:53:21.635Z,0.70
2019-03-04T08:55:52.950Z,0.80
2019-03-04T08:58:22.243Z,0.60
2019-03-04T09:00:51.566Z,0.67
2019-03-04T09:03:21.301Z,0.87
2019-03-04T09:05:50.557Z,1.00
2019-03-04T09:08:20.131Z,0.90
2019-03-04T09:10:49.689Z,0.90
2019-03-04T09:13:18.839Z,0.67
2019-03-04T09:15:48.109Z,0.57
2019-03-04T09:18:17.274Z,0.63
2019-03-04T09:20:46.644Z,0.53
2019-03-04T09:23:15.925Z,0.60
2019-03-04T09:25:48.591Z,0.67
2019-03-04T09:28:18.100Z,1.10
2019-03-04T09:30:47.554Z,0.53
2019-03-04T09:33:16.785Z,0.93
2019-03-04T09:35:46.060Z,0.80
2019-03-04T09:38:15.696Z,0.60
2019-03-04T09:40:45.305Z,0.73
2019-03-04T09:43:15.054Z,1.03
2019-03-04T09:45:44.353Z,0.80
2019-03-04T09:48:13.659Z,0.70
2019-03-04T09:50:42.874Z,1.00
2019-03-04T09:53:12.149Z,1.00
2019-03-04T09:55:41.634Z,0.90
2019-03-04T09:58:11.063Z,0.80
2019-03-04T10:00:53.612Z,0.70
2019-03-04T10:03:50.159Z,0.57
2019-03-04T10:06:47.681Z,1.07
2019-03-04T10:09:55.570Z,0.57
2019-03-04T10:12:53.369Z,1.10
2019-03-04T10:15:45.410Z,1.20
2019-03-04T10:18:50.123Z,1.00
2019-03-04T10:21:46.292Z,0.70
2019-03-04T10:24:42.252Z,0.70
2019-03-04T10:28:07.268Z,0.60
2019-03-04T10:31:01.190Z,1.00
2019-03-04T10:34:10.135Z,1.00
2019-03-04T10:37:06.892Z,0.90
2019-03-04T10:40:05.923Z,1.47
2019-03-04T10:43:15.398Z,1.10
2019-03-04T10:46:04.007Z,1.00
2019-03-04T10:48:33.329Z,1.00
2019-03-04T10:51:02.808Z,0.63
2019-03-04T10:53:32.360Z,1.13
2019-03-04T10:56:01.676Z,1.50
2019-03-04T10:58:31.022Z,1.37
2019-03-04T11:01:00.563Z,0.50
2019-03-04T11:03:30.251Z,1.17
2019-03-04T11:05:59.787Z,1.00
2019-03-04T11:08:29.001Z,1.27
2019-03-04T11:10:58.583Z,1.27
2019-03-04T11:13:27.770Z,1.10
2019-03-04T11:15:57.038Z,1.00
2019-03-04T11:18:26.354Z,1.40
2019-03-04T11:20:55.840Z,1.10
2019-03-04T11:23:26.135Z,1.20
2019-03-04T11:25:55.365Z,1.10
2019-03-04T11:28:24.940Z,0.97
2019-03-04T11:30:54.461Z,1.17
2019-03-04T11:33:23.914Z,1.20
2019-03-04T11:35:53.402Z,0.97
2019-03-04T11:38:45.827Z,1.20
2019-03-04T11:41:17.635Z,1.20
2019-03-04T11:43:47.028Z,0.83
2019-03-04T11:46:17.062Z,1.00
2019-03-04T11:48:46.205Z,1.00
2019-03-04T11:51:15.644Z,1.10
2019-03-04T11:53:44.943Z,1.47
2019-03-04T11:56:14.490Z,1.50
2019-03-04T11:58:43.761Z,1.43
2019-03-04T12:01:38.038Z,0.70
2019-03-04T12:04:07.570Z,0.93
2019-03-04T12:06:37.037Z,1.17
2019-03-04T12:09:10.001Z,1.30
2019-03-04T12:11:39.537Z,1.60
2019-03-04T12:14:09.040Z,1.73
2019-03-04T12:16:38.618Z,1.27
2019-03-04T12:19:08.270Z,1.10
2019-03-04T12:21:37.746Z,1.40
2019-03-04T12:24:07.622Z,1.67
2019-03-04T12:26:37.058Z,1.30
2019-03-04T12:29:06.271Z,1.40
2019-03-04T12:31:46.329Z,1.50
2019-03-04T12:34:24.837Z,1.43
2019-03-04T12:36:53.550Z,1.50
2019-03-04T12:39:22.961Z,1.90
2019-03-04T12:41:52.221Z,1.30
2019-03-04T12:44:21.437Z,1.50
2019-03-04T12:46:50.651Z,1.10
2019-03-04T12:49:19.878Z,1.43
2019-03-04T12:51:49.038Z,1.97
2019-03-04T12:54:18.566Z,1.37
2019-03-04T12:56:47.763Z,1.30
2019-03-04T12:59:17.100Z,1.57
2019-03-04T13:01:46.303Z,1.20
2019-03-04T13:04:15.477Z,1.30
2019-03-04T13:06:45.240Z,1.17
2019-03-04T13:09:14.958Z,1.17
2019-03-04T13:11:44.580Z,1.13
2019-03-04T13:14:14.095Z,1.30
2019-03-04T13:16:43.338Z,1.00
2019-03-04T13:19:13.382Z,0.90
2019-03-04T13:21:42.567Z,0.50
2019-03-04T13:24:12.254Z,0.70
2019-03-04T13:26:41.509Z,1.03
2019-03-04T13:29:10.838Z,0.60
2019-03-04T13:31:40.232Z,1.07
2019-03-04T13:34:09.463Z,0.90
2019-03-04T13:36:38.699Z,0.73
2019-03-04T13:39:08.255Z,1.00
2019-03-04T13:41:38.232Z,0.83
2019-03-04T13:44:08.074Z,1.27
2019-03-04T13:46:37.520Z,1.20
2019-03-04T13:49:06.851Z,1.07
2019-03-04T13:51:36.417Z,1.10
2019-03-04T13:54:06.035Z,1.23
2019-03-04T13:56:35.495Z,1.20
2019-03-04T13:59:05.087Z,0.70
2019-03-04T14:01:34.707Z,1.07
2019-03-04T14:04:03.956Z,1.53
2019-03-04T14:06:33.201Z,1.50
2019-03-04T14:09:02.542Z,1.40
2019-03-04T14:11:31.889Z,1.20
2019-03-04T14:14:02.139Z,0.90
2019-03-04T14:16:31.468Z,1.40
2019-03-04T14:19:00.825Z,1.07
2019-03-04T14:21:30.694Z,1.63
2019-03-04T14:24:00.602Z,0.60
2019-03-04T14:26:30.918Z,0.60
2019-03-04T14:29:00.197Z,0.77
2019-03-04T14:31:30.081Z,0.60
2019-03-04T14:33:59.552Z,1.20
2019-03-04T14:36:28.859Z,1.10
2019-03-04T14:38:58.210Z,0.90
2019-03-04T14:41:27.572Z,1.40
2019-03-04T14:43:56.909Z,1.33
2019-03-04T14:46:26.526Z,0.87
2019-03-04T14:48:56.587Z,0.90
2019-03-04T14:51:25.964Z,0.90
2019-03-04T14:53:55.367Z,1.00
2019-03-04T14:56:24.880Z,1.10
2019-03-04T14:59:09.571Z,1.03
2019-03-04T15:01:25.420Z,1.20
2019-03-04T15:03:54.716Z,0.60
2019-03-04T15:06:24.049Z,0.90
2019-03-04T15:08:53.366Z,0.70
2019-03-04T15:11:22.826Z,0.83
2019-03-04T15:13:52.148Z,0.53
2019-03-04T15:16:21.738Z,0.60
2019-03-04T15:18:51.154Z,0.60
2019-03-04T15:21:20.414Z,0.30
2019-03-04T15:23:49.663Z,0.80
2019-03-04T15:26:19.760Z,0.70
2019-03-04T15:28:48.929Z,0.50
2019-03-04T15:31:18.459Z,0.40
2019-03-04T15:33:47.888Z,0.63
2019-03-04T15:36:17.550Z,0.60
2019-03-04T15:38:46.842Z,0.70
2019-03-04T15:41:16.719Z,0.80
2019-03-04T15:43:46.675Z,0.43
2019-03-04T15:46:16.133Z,0.70
2019-03-04T15:48:45.438Z,0.60
2019-03-04T15:51:14.975Z,0.87
2019-03-04T15:53:44.210Z,0.50
2019-03-04T15:56:13.521Z,0.70
2019-03-04T15:58:42.910Z,0.37
2019-03-04T16:01:13.462Z,0.43
2019-03-04T16:03:42.817Z,0.50
2019-03-04T16:06:12.464Z,0.33
2019-03-04T16:08:43.929Z,0.17
2019-03-04T16:11:12.985Z,0.27
2019-03-04T16:13:52.404Z,0.30
2019-03-04T16:16:13.465Z,0.30
2019-03-04T16:18:43.178Z,0.30
2019-03-04T16:21:12.436Z,0.43
2019-03-04T16:23:41.573Z,0.30
2019-03-04T16:26:13.225Z,0.47
2019-03-04T16:28:43.254Z,0.50
2019-03-04T16:31:13.251Z,0.60
2019-03-04T16:33:42.841Z,0.40
2019-03-04T16:36:12.366Z,0.20
2019-03-04T16:38:42.100Z,0.40
2019-03-04T16:41:11.534Z,0.40
2019-03-04T16:43:41.094Z,0.50
2019-03-04T16:46:10.343Z,0.70
2019-03-04T16:48:39.629Z,0.70
2019-03-04T16:51:08.868Z,0.27
2019-03-04T16:53:38.177Z,0.60
2019-03-04T16:56:07.882Z,0.40
2019-03-04T16:58:37.465Z,0.50
2019-03-04T17:01:07.103Z,0.33
2019-03-04T17:03:37.336Z,0.47
2019-03-04T17:06:06.751Z,1.10
2019-03-04T17:08:36.291Z,0.30
2019-03-04T17:11:05.942Z,0.40
2019-03-04T17:13:35.295Z,0.40
2019-03-04T17:16:04.842Z,0.83
2019-03-04T17:18:34.175Z,0.73
2019-03-04T17:21:03.512Z,0.63
2019-03-04T17:23:32.891Z,0.80
2019-03-04T17:26:02.408Z,0.80
2019-03-04T17:28:31.918Z,0.80
2019-03-04T17:31:01.270Z,0.40
2019-03-04T17:33:30.610Z,0.80
2019-03-04T17:36:00.119Z,1.20
2019-03-04T17:38:29.265Z,0.60
2019-03-04T17:40:58.509Z,0.97
2019-03-04T17:43:28.000Z,1.00
2019-03-04T17:45:57.165Z,1.00
2019-03-04T17:48:26.474Z,1.53
2019-03-04T17:50:56.035Z,1.50
2019-03-04T17:53:25.935Z,1.27
2019-03-04T17:55:55.353Z,1.10
2019-03-04T17:58:24.654Z,1.10
2019-03-04T18:00:55.451Z,1.40
2019-03-04T18:03:24.745Z,1.20
2019-03-04T18:05:54.397Z,1.20
2019-03-04T18:08:23.779Z,1.30
2019-03-04T18:11:04.152Z,2.03
2019-03-04T18:13:33.951Z,1.30
2019-03-04T18:16:03.114Z,1.70
2019-03-04T18:18:32.398Z,1.60
2019-03-04T18:21:01.798Z,2.40
2019-03-04T18:23:31.231Z,2.07
2019-03-04T18:26:07.567Z,2.00
2019-03-04T18:29:21.173Z,2.20
2019-03-04T18:32:32.824Z,2.00
2019-03-04T18:35:29.871Z,2.53
2019-03-04T18:38:35.187Z,3.73
2019-03-04T18:41:48.347Z,2.37
2019-03-04T18:44:36.892Z,2.17
2019-03-04T18:47:32.025Z,2.23
2019-03-04T18:50:01.335Z,2.27
2019-03-04T18:52:30.747Z,2.53
2019-03-04T18:55:00.571Z,2.43
2019-03-04T18:57:29.704Z,2.33
2019-03-04T18:59:59.248Z,1.60
2019-03-04T19:02:28.481Z,2.40
2019-03-04T19:04:58.080Z,1.67
2019-03-04T19:07:27.732Z,1.60
2019-03-04T19:09:57.393Z,1.60
2019-03-04T19:12:26.963Z,2.00
2019-03-04T19:14:57.220Z,1.90
2019-03-04T19:17:33.334Z,1.50
2019-03-04T19:19:57.535Z,1.70
2019-03-04T19:22:26.749Z,1.80
2019-03-04T19:24:56.523Z,2.13
2019-03-04T19:27:25.921Z,1.53
2019-03-04T19:29:55.173Z,2.97
2019-03-04T19:32:24.338Z,1.80
2019-03-04T19:34:53.642Z,1.40
2019-03-04T19:37:23.078Z,1.27
2019-03-04T19:39:52.454Z,1.40
2019-03-04T19:42:21.675Z,1.47
2019-03-04T19:44:50.939Z,1.07
2019-03-04T19:47:20.382Z,0.90
2019-03-04T19:49:50.626Z,1.13
2019-03-04T19:52:20.117Z,1.00
2019-03-04T19:54:49.269Z,1.20
2019-03-04T19:57:19.985Z,0.97
2019-03-04T19:59:49.398Z,1.13
2019-03-04T20:02:18.561Z,1.93
2019-03-04T20:04:48.346Z,1.97
2019-03-04T20:07:18.665Z,2.23
2019-03-04T20:09:48.076Z,1.10
2019-03-04T20:12:17.715Z,1.40
2019-03-04T20:14:47.110Z,1.00
2019-03-04T20:17:16.605Z,1.47
2019-03-04T20:19:45.822Z,1.20
2019-03-04T20:22:15.000Z,1.57
2019-03-04T20:24:44.269Z,1.40
2019-03-04T20:27:13.970Z,1.50
2019-03-04T20:29:43.403Z,1.30
2019-03-04T20:32:13.207Z,1.20
2019-03-04T20:34:42.446Z,2.13
2019-03-04T20:37:12.001Z,1.63
2019-03-04T20:39:41.507Z,1.70
2019-03-04T20:42:10.717Z,1.53
2019-03-04T20:44:39.914Z,1.63
2019-03-04T20:47:09.143Z,1.87
2019-03-04T20:49:38.642Z,1.20
2019-03-04T20:52:07.948Z,1.70
2019-03-04T20:54:37.082Z,1.60
2019-03-04T20:57:06.581Z,1.70
2019-03-04T20:59:35.788Z,1.70
2019-03-04T21:02:05.013Z,1.90
2019-03-04T21:04:34.454Z,2.57
2019-03-04T21:07:03.709Z,2.70
2019-03-04T21:09:32.886Z,2.10
2019-03-04T21:12:02.434Z,2.77
2019-03-04T21:14:31.909Z,2.37
2019-03-04T21:17:01.540Z,1.80
2019-03-04T21:19:30.726Z,1.80
2019-03-04T21:21:59.931Z,2.13
2019-03-04T21:24:29.551Z,2.10
2019-03-04T21:26:59.167Z,1.90
2019-03-04T21:29:53.192Z,1.90
2019-03-04T21:32:49.265Z,2.13
2019-03-04T21:36:01.353Z,1.87
2019-03-04T21:38:32.688Z,1.77
2019-03-04T21:41:32.875Z,1.70
2019-03-04T21:44:36.739Z,1.50
2019-03-04T21:47:44.198Z,1.47
2019-03-04T21:50:19.438Z,1.33
2019-03-04T21:53:16.781Z,1.40
2019-03-04T21:56:44.699Z,1.10
2019-03-04T21:59:28.126Z,1.00
2019-03-04T22:02:08.205Z,0.60
2019-03-04T22:04:37.720Z,0.87
2019-03-04T22:10:03.704Z,0.90
2019-03-04T22:12:33.314Z,0.80
2019-03-04T22:15:08.902Z,1.17
2019-03-04T22:17:39.336Z,0.80
2019-03-04T22:20:20.594Z,0.70
2019-03-04T22:23:26.765Z,0.73
2019-03-04T22:26:03.570Z,1.00
2019-03-04T22:28:33.424Z,0.73
2019-03-04T22:31:02.646Z,0.70
2019-03-04T22:37:17.950Z,0.90
2019-03-04T22:40:23.195Z,0.90
2019-03-04T22:42:52.364Z,0.70
2019-03-04T22:45:21.754Z,1.00
2019-03-04T22:47:51.087Z,1.23
2019-03-04T22:50:20.584Z,1.00
2019-03-04T22:52:49.801Z,1.23
2019-03-04T22:55:22.114Z,1.10
2019-03-04T22:57:51.440Z,1.10
2019-03-04T23:01:16.722Z,1.00
2019-03-04T23:03:46.715Z,1.10
2019-03-04T23:06:19.482Z,1.10
2019-03-04T23:08:48.702Z,1.50
2019-03-04T23:11:18.494Z,1.20
2019-03-04T23:13:58.118Z,1.10
2019-03-04T23:16:29.673Z,1.10
2019-03-04T23:18:58.847Z,1.40
2019-03-04T23:21:28.131Z,1.63
2019-03-04T23:23:57.277Z,1.20
2019-03-04T23:26:26.541Z,1.30
2019-03-04T23:28:56.020Z,1.40
2019-03-04T23:31:25.250Z,1.57
2019-03-04T23:33:54.461Z,1.10
2019-03-04T23:36:23.996Z,1.47
2019-03-04T23:38:53.114Z,0.73
2019-03-04T23:41:22.603Z,1.00
2019-03-04T23:43:51.979Z,0.90
2019-03-04T23:46:21.215Z,1.10
2019-03-04T23:48:50.433Z,1.00
2019-03-04T23:51:19.914Z,1.20
2019-03-04T23:53:49.447Z,0.90
2019-03-04T23:56:18.751Z,1.10
2019-03-04T23:58:47.963Z,1.40
